sensor_id;sensor_type;location;lat;lon;timestamp;pressure;altitude;pressure_sealevel;temperature;humidity
44441;BME280;30146;52.268;20.944;2022-07-11T00:00:36;100269.79;;;13.04;66.46
44441;BME280;30146;52.268;20.944;2022-07-11T00:03:07;100271.90;;;13.02;66.52
44441;BME280;30146;52.268;20.944;2022-07-11T00:05:39;100271.23;;;13.01;66.58
44441;BME280;30146;52.268;20.944;2022-07-11T00:08:10;100272.63;;;13.00;66.59
44441;BME280;30146;52.268;20.944;2022-07-11T00:10:50;100272.34;;;12.97;66.59
44441;BME280;30146;52.268;20.944;2022-07-11T00:13:21;100266.88;;;12.96;66.67
44441;BME280;30146;52.268;20.944;2022-07-11T00:15:53;100266.19;;;12.96;66.80
44441;BME280;30146;52.268;20.944;2022-07-11T00:18:25;100261.55;;;12.96;66.73
44441;BME280;30146;52.268;20.944;2022-07-11T00:20:56;100263.68;;;12.93;66.59
44441;BME280;30146;52.268;20.944;2022-07-11T00:23:28;100265.77;;;12.91;66.76
44441;BME280;30146;52.268;20.944;2022-07-11T00:25:59;100261.38;;;12.87;66.75
44441;BME280;30146;52.268;20.944;2022-07-11T00:28:31;100259.72;;;12.85;66.79
44441;BME280;30146;52.268;20.944;2022-07-11T00:31:02;100261.31;;;12.83;66.80
44441;BME280;30146;52.268;20.944;2022-07-11T00:33:33;100263.42;;;12.81;66.72
44441;BME280;30146;52.268;20.944;2022-07-11T00:36:05;100261.20;;;12.79;66.88
44441;BME280;30146;52.268;20.944;2022-07-11T00:38:37;100262.77;;;12.78;66.96
44441;BME280;30146;52.268;20.944;2022-07-11T00:41:08;100259.55;;;12.76;66.99
44441;BME280;30146;52.268;20.944;2022-07-11T00:43:42;100257.54;;;12.74;66.90
44441;BME280;30146;52.268;20.944;2022-07-11T00:46:13;100256.75;;;12.70;66.75
44441;BME280;30146;52.268;20.944;2022-07-11T00:48:45;100255.75;;;12.68;66.79
44441;BME280;30146;52.268;20.944;2022-07-11T00:51:18;100251.67;;;12.67;66.90
44441;BME280;30146;52.268;20.944;2022-07-11T00:53:52;100251.03;;;12.65;66.94
44441;BME280;30146;52.268;20.944;2022-07-11T00:56:26;100252.44;;;12.63;67.05
44441;BME280;30146;52.268;20.944;2022-07-11T00:58:59;100252.29;;;12.61;66.91
44441;BME280;30146;52.268;20.944;2022-07-11T01:01:33;100251.80;;;12.60;67.14
44441;BME280;30146;52.268;20.944;2022-07-11T01:04:08;100256.29;;;12.59;67.15
44441;BME280;30146;52.268;20.944;2022-07-11T01:06:43;100257.17;;;12.57;67.14
44441;BME280;30146;52.268;20.944;2022-07-11T01:12:24;100250.04;;;12.53;67.05
44441;BME280;30146;52.268;20.944;2022-07-11T01:14:58;100250.60;;;12.51;67.17
44441;BME280;30146;52.268;20.944;2022-07-11T01:17:30;100248.59;;;12.48;66.98
44441;BME280;30146;52.268;20.944;2022-07-11T01:20:01;100254.27;;;12.47;67.00
44441;BME280;30146;52.268;20.944;2022-07-11T01:22:35;100252.40;;;12.46;67.25
44441;BME280;30146;52.268;20.944;2022-07-11T01:25:08;100253.98;;;12.44;67.00
44441;BME280;30146;52.268;20.944;2022-07-11T01:27:39;100251.98;;;12.42;66.93
44441;BME280;30146;52.268;20.944;2022-07-11T01:30:11;100248.06;;;12.40;67.05
44441;BME280;30146;52.268;20.944;2022-07-11T01:32:43;100244.36;;;12.36;66.97
44441;BME280;30146;52.268;20.944;2022-07-11T01:35:14;100244.26;;;12.32;66.84
44441;BME280;30146;52.268;20.944;2022-07-11T01:37:46;100243.27;;;12.30;67.04
44441;BME280;30146;52.268;20.944;2022-07-11T01:40:17;100240.23;;;12.27;67.09
44441;BME280;30146;52.268;20.944;2022-07-11T01:42:49;100241.63;;;12.26;67.28
44441;BME280;30146;52.268;20.944;2022-07-11T01:45:20;100231.05;;;12.24;67.32
44441;BME280;30146;52.268;20.944;2022-07-11T01:47:51;100227.63;;;12.23;67.19
44441;BME280;30146;52.268;20.944;2022-07-11T01:50:23;100229.86;;;12.23;67.33
44441;BME280;30146;52.268;20.944;2022-07-11T01:52:54;100229.20;;;12.22;67.31
44441;BME280;30146;52.268;20.944;2022-07-11T01:55:25;100230.57;;;12.22;67.32
44441;BME280;30146;52.268;20.944;2022-07-11T01:57:57;100232.47;;;12.21;67.44
44441;BME280;30146;52.268;20.944;2022-07-11T02:00:29;100230.62;;;12.19;67.31
44441;BME280;30146;52.268;20.944;2022-07-11T02:03:00;100234.08;;;12.17;67.56
44441;BME280;30146;52.268;20.944;2022-07-11T02:05:31;100233.61;;;12.15;67.68
44441;BME280;30146;52.268;20.944;2022-07-11T02:08:03;100231.73;;;12.15;67.67
44441;BME280;30146;52.268;20.944;2022-07-11T02:10:47;100233.79;;;12.15;67.66
44441;BME280;30146;52.268;20.944;2022-07-11T02:13:19;100229.34;;;12.14;67.78
44441;BME280;30146;52.268;20.944;2022-07-11T02:15:51;100234.66;;;12.13;67.96
44441;BME280;30146;52.268;20.944;2022-07-11T02:18:23;100235.72;;;12.12;67.90
44441;BME280;30146;52.268;20.944;2022-07-11T02:20:54;100234.70;;;12.11;67.82
44441;BME280;30146;52.268;20.944;2022-07-11T02:23:25;100237.77;;;12.10;67.93
44441;BME280;30146;52.268;20.944;2022-07-11T02:25:56;100235.73;;;12.11;67.97
44441;BME280;30146;52.268;20.944;2022-07-11T02:28:27;100236.06;;;12.12;67.97
44441;BME280;30146;52.268;20.944;2022-07-11T02:30:58;100238.95;;;12.13;68.17
44441;BME280;30146;52.268;20.944;2022-07-11T02:33:30;100240.83;;;12.13;68.18
44441;BME280;30146;52.268;20.944;2022-07-11T02:36:01;100242.02;;;12.13;68.23
44441;BME280;30146;52.268;20.944;2022-07-11T02:38:32;100244.93;;;12.15;68.37
44441;BME280;30146;52.268;20.944;2022-07-11T02:41:04;100244.39;;;12.16;68.19
44441;BME280;30146;52.268;20.944;2022-07-11T02:43:35;100242.15;;;12.16;68.27
44441;BME280;30146;52.268;20.944;2022-07-11T02:46:06;100241.80;;;12.17;68.14
44441;BME280;30146;52.268;20.944;2022-07-11T02:48:37;100240.23;;;12.17;68.24
44441;BME280;30146;52.268;20.944;2022-07-11T02:51:09;100242.27;;;12.19;68.30
44441;BME280;30146;52.268;20.944;2022-07-11T02:53:40;100243.96;;;12.21;68.50
44441;BME280;30146;52.268;20.944;2022-07-11T02:56:12;100243.23;;;12.23;68.55
44441;BME280;30146;52.268;20.944;2022-07-11T02:58:43;100241.12;;;12.26;68.64
44441;BME280;30146;52.268;20.944;2022-07-11T03:01:14;100245.17;;;12.30;68.50
44441;BME280;30146;52.268;20.944;2022-07-11T03:03:45;100244.42;;;12.33;68.66
44441;BME280;30146;52.268;20.944;2022-07-11T03:06:17;100246.23;;;12.37;68.71
44441;BME280;30146;52.268;20.944;2022-07-11T03:08:48;100244.96;;;12.41;68.79
44441;BME280;30146;52.268;20.944;2022-07-11T03:11:19;100247.98;;;12.45;68.81
44441;BME280;30146;52.268;20.944;2022-07-11T03:13:50;100249.80;;;12.48;68.66
44441;BME280;30146;52.268;20.944;2022-07-11T03:16:21;100251.64;;;12.50;68.60
44441;BME280;30146;52.268;20.944;2022-07-11T03:18:53;100251.90;;;12.55;68.76
44441;BME280;30146;52.268;20.944;2022-07-11T03:21:24;100253.55;;;12.59;68.75
44441;BME280;30146;52.268;20.944;2022-07-11T03:23:56;100250.59;;;12.61;68.68
44441;BME280;30146;52.268;20.944;2022-07-11T03:26:27;100248.52;;;12.61;68.85
44441;BME280;30146;52.268;20.944;2022-07-11T03:28:58;100252.95;;;12.63;68.75
44441;BME280;30146;52.268;20.944;2022-07-11T03:31:29;100249.66;;;12.64;68.76
44441;BME280;30146;52.268;20.944;2022-07-11T03:34:01;100254.23;;;12.67;68.63
44441;BME280;30146;52.268;20.944;2022-07-11T03:36:32;100260.35;;;12.70;68.82
44441;BME280;30146;52.268;20.944;2022-07-11T03:39:03;100258.60;;;12.72;68.80
44441;BME280;30146;52.268;20.944;2022-07-11T03:41:35;100259.73;;;12.76;68.87
44441;BME280;30146;52.268;20.944;2022-07-11T03:44:06;100258.64;;;12.79;68.77
44441;BME280;30146;52.268;20.944;2022-07-11T03:46:37;100256.66;;;12.83;69.02
44441;BME280;30146;52.268;20.944;2022-07-11T03:49:08;100252.77;;;12.90;69.03
44441;BME280;30146;52.268;20.944;2022-07-11T03:51:39;100251.77;;;13.05;69.11
44441;BME280;30146;52.268;20.944;2022-07-11T03:54:10;100249.23;;;13.19;69.06
44441;BME280;30146;52.268;20.944;2022-07-11T03:56:41;100247.17;;;13.26;68.87
44441;BME280;30146;52.268;20.944;2022-07-11T03:59:13;100245.67;;;13.34;68.92
44441;BME280;30146;52.268;20.944;2022-07-11T04:01:44;100244.52;;;13.39;68.72
44441;BME280;30146;52.268;20.944;2022-07-11T04:04:16;100245.25;;;13.44;68.70
44441;BME280;30146;52.268;20.944;2022-07-11T04:06:50;100243.94;;;13.50;68.62
44441;BME280;30146;52.268;20.944;2022-07-11T04:09:23;100245.33;;;13.57;68.52
44441;BME280;30146;52.268;20.944;2022-07-11T04:11:54;100244.02;;;13.62;68.41
44441;BME280;30146;52.268;20.944;2022-07-11T04:14:25;100237.65;;;13.69;68.54
44441;BME280;30146;52.268;20.944;2022-07-11T04:16:57;100236.77;;;13.77;68.59
44441;BME280;30146;52.268;20.944;2022-07-11T04:19:34;100230.79;;;13.83;68.46
44441;BME280;30146;52.268;20.944;2022-07-11T04:22:05;100226.50;;;13.90;68.37
44441;BME280;30146;52.268;20.944;2022-07-11T04:24:36;100219.80;;;13.96;68.43
44441;BME280;30146;52.268;20.944;2022-07-11T04:27:08;100211.36;;;14.03;68.35
44441;BME280;30146;52.268;20.944;2022-07-11T04:29:40;100208.48;;;14.09;68.04
44441;BME280;30146;52.268;20.944;2022-07-11T04:32:11;100207.05;;;14.11;67.82
44441;BME280;30146;52.268;20.944;2022-07-11T04:34:47;100203.77;;;14.12;67.86
44441;BME280;30146;52.268;20.944;2022-07-11T04:37:20;100208.26;;;14.11;67.63
44441;BME280;30146;52.268;20.944;2022-07-11T04:39:51;100213.60;;;14.10;67.80
44441;BME280;30146;52.268;20.944;2022-07-11T04:42:24;100219.25;;;14.11;67.92
44441;BME280;30146;52.268;20.944;2022-07-11T04:44:55;100220.23;;;14.13;68.10
44441;BME280;30146;52.268;20.944;2022-07-11T04:47:27;100225.48;;;14.15;68.29
44441;BME280;30146;52.268;20.944;2022-07-11T04:49:58;100223.14;;;14.20;68.39
44441;BME280;30146;52.268;20.944;2022-07-11T04:52:29;100230.09;;;14.24;68.65
44441;BME280;30146;52.268;20.944;2022-07-11T04:55:01;100235.11;;;14.29;68.76
44441;BME280;30146;52.268;20.944;2022-07-11T04:57:33;100238.08;;;14.34;68.69
44441;BME280;30146;52.268;20.944;2022-07-11T05:00:07;100238.48;;;14.38;68.81
44441;BME280;30146;52.268;20.944;2022-07-11T05:02:38;100241.98;;;14.42;68.70
44441;BME280;30146;52.268;20.944;2022-07-11T05:05:10;100252.38;;;14.46;68.77
44441;BME280;30146;52.268;20.944;2022-07-11T05:07:42;100251.95;;;14.49;68.65
44441;BME280;30146;52.268;20.944;2022-07-11T05:10:14;100246.42;;;14.50;68.59
44441;BME280;30146;52.268;20.944;2022-07-11T05:12:46;100246.20;;;14.52;68.63
44441;BME280;30146;52.268;20.944;2022-07-11T05:15:17;100244.85;;;14.57;68.98
44441;BME280;30146;52.268;20.944;2022-07-11T05:17:52;100249.33;;;14.64;68.85
44441;BME280;30146;52.268;20.944;2022-07-11T05:20:24;100256.36;;;14.71;68.92
44441;BME280;30146;52.268;20.944;2022-07-11T05:22:57;100260.50;;;14.77;68.86
44441;BME280;30146;52.268;20.944;2022-07-11T05:25:29;100265.18;;;14.81;68.76
44441;BME280;30146;52.268;20.944;2022-07-11T05:28:00;100267.17;;;14.85;68.70
44441;BME280;30146;52.268;20.944;2022-07-11T05:30:31;100269.33;;;14.87;68.61
44441;BME280;30146;52.268;20.944;2022-07-11T05:33:03;100268.60;;;14.89;68.55
44441;BME280;30146;52.268;20.944;2022-07-11T05:35:34;100267.50;;;14.91;68.62
44441;BME280;30146;52.268;20.944;2022-07-11T05:38:05;100268.50;;;14.93;68.57
44441;BME280;30146;52.268;20.944;2022-07-11T05:40:36;100273.96;;;14.94;68.45
44441;BME280;30146;52.268;20.944;2022-07-11T05:43:10;100272.29;;;14.93;68.41
44441;BME280;30146;52.268;20.944;2022-07-11T05:45:42;100275.36;;;14.93;68.42
44441;BME280;30146;52.268;20.944;2022-07-11T05:48:13;100273.89;;;14.96;68.36
44441;BME280;30146;52.268;20.944;2022-07-11T05:50:45;100270.50;;;15.01;68.30
44441;BME280;30146;52.268;20.944;2022-07-11T05:53:16;100274.76;;;15.02;68.21
44441;BME280;30146;52.268;20.944;2022-07-11T05:55:47;100275.76;;;15.03;68.16
44441;BME280;30146;52.268;20.944;2022-07-11T05:58:21;100276.23;;;15.05;68.20
44441;BME280;30146;52.268;20.944;2022-07-11T06:00:53;100272.73;;;15.07;68.21
44441;BME280;30146;52.268;20.944;2022-07-11T06:03:24;100277.15;;;15.09;68.06
44441;BME280;30146;52.268;20.944;2022-07-11T06:05:56;100280.90;;;15.10;67.92
44441;BME280;30146;52.268;20.944;2022-07-11T06:08:28;100285.50;;;15.11;67.97
44441;BME280;30146;52.268;20.944;2022-07-11T06:11:13;100280.39;;;15.10;67.93
44441;BME280;30146;52.268;20.944;2022-07-11T06:13:50;100282.52;;;15.13;68.11
44441;BME280;30146;52.268;20.944;2022-07-11T06:16:29;100285.03;;;15.16;68.08
44441;BME280;30146;52.268;20.944;2022-07-11T06:19:01;100283.42;;;15.17;67.94
44441;BME280;30146;52.268;20.944;2022-07-11T06:21:35;100282.75;;;15.17;67.94
44441;BME280;30146;52.268;20.944;2022-07-11T06:24:08;100281.85;;;15.19;67.86
44441;BME280;30146;52.268;20.944;2022-07-11T06:26:40;100280.66;;;15.18;67.82
44441;BME280;30146;52.268;20.944;2022-07-11T06:29:11;100277.52;;;15.19;67.78
44441;BME280;30146;52.268;20.944;2022-07-11T06:31:42;100277.05;;;15.18;67.65
44441;BME280;30146;52.268;20.944;2022-07-11T06:34:14;100279.92;;;15.19;67.77
44441;BME280;30146;52.268;20.944;2022-07-11T06:36:46;100281.05;;;15.23;67.88
44441;BME280;30146;52.268;20.944;2022-07-11T06:39:17;100284.92;;;15.25;67.77
44441;BME280;30146;52.268;20.944;2022-07-11T06:41:48;100284.20;;;15.26;67.69
44441;BME280;30146;52.268;20.944;2022-07-11T06:44:20;100286.10;;;15.27;67.73
44441;BME280;30146;52.268;20.944;2022-07-11T06:46:57;100279.88;;;15.27;67.71
44441;BME280;30146;52.268;20.944;2022-07-11T06:49:29;100279.19;;;15.27;67.75
44441;BME280;30146;52.268;20.944;2022-07-11T06:52:01;100280.93;;;15.27;67.64
44441;BME280;30146;52.268;20.944;2022-07-11T06:54:32;100277.83;;;15.27;67.49
44441;BME280;30146;52.268;20.944;2022-07-11T06:57:04;100280.93;;;15.27;67.54
44441;BME280;30146;52.268;20.944;2022-07-11T06:59:41;100282.62;;;15.28;67.70
44441;BME280;30146;52.268;20.944;2022-07-11T07:02:14;100283.05;;;15.30;67.79
44441;BME280;30146;52.268;20.944;2022-07-11T07:04:47;100281.59;;;15.33;67.76
44441;BME280;30146;52.268;20.944;2022-07-11T07:07:20;100284.13;;;15.47;67.96
44441;BME280;30146;52.268;20.944;2022-07-11T07:09:52;100281.30;;;15.77;68.62
44441;BME280;30146;52.268;20.944;2022-07-11T07:12:26;100280.41;;;16.15;68.85
44441;BME280;30146;52.268;20.944;2022-07-11T07:14:59;100275.38;;;16.46;68.73
44441;BME280;30146;52.268;20.944;2022-07-11T07:17:30;100271.71;;;16.82;68.45
44441;BME280;30146;52.268;20.944;2022-07-11T07:20:04;100272.53;;;17.11;67.88
44441;BME280;30146;52.268;20.944;2022-07-11T07:22:38;100274.73;;;17.26;67.07
44441;BME280;30146;52.268;20.944;2022-07-11T07:25:11;100276.02;;;17.33;66.51
44441;BME280;30146;52.268;20.944;2022-07-11T07:27:42;100277.80;;;17.36;65.98
44441;BME280;30146;52.268;20.944;2022-07-11T07:30:14;100277.49;;;17.36;65.66
44441;BME280;30146;52.268;20.944;2022-07-11T07:32:46;100273.96;;;17.33;65.26
44441;BME280;30146;52.268;20.944;2022-07-11T07:35:19;100269.98;;;17.29;65.07
44441;BME280;30146;52.268;20.944;2022-07-11T07:37:51;100270.21;;;17.28;64.95
44441;BME280;30146;52.268;20.944;2022-07-11T07:40:23;100268.49;;;17.27;64.81
44441;BME280;30146;52.268;20.944;2022-07-11T07:42:57;100269.27;;;17.30;65.07
44441;BME280;30146;52.268;20.944;2022-07-11T07:45:28;100267.59;;;17.37;64.98
44441;BME280;30146;52.268;20.944;2022-07-11T07:48:02;100265.54;;;17.50;65.11
44441;BME280;30146;52.268;20.944;2022-07-11T07:50:34;100263.80;;;17.68;65.23
44441;BME280;30146;52.268;20.944;2022-07-11T07:53:09;100261.33;;;17.82;65.00
44441;BME280;30146;52.268;20.944;2022-07-11T07:55:40;100260.71;;;17.89;64.51
44441;BME280;30146;52.268;20.944;2022-07-11T07:58:11;100263.70;;;17.92;64.01
44441;BME280;30146;52.268;20.944;2022-07-11T08:00:43;100261.13;;;17.92;63.87
44441;BME280;30146;52.268;20.944;2022-07-11T08:03:33;100264.50;;;17.94;63.68
44441;BME280;30146;52.268;20.944;2022-07-11T08:06:04;100261.42;;;17.97;63.49
44441;BME280;30146;52.268;20.944;2022-07-11T08:08:38;100258.33;;;18.01;63.34
44441;BME280;30146;52.268;20.944;2022-07-11T08:11:09;100256.71;;;18.11;63.44
44441;BME280;30146;52.268;20.944;2022-07-11T08:14:01;100256.91;;;18.22;63.03
44441;BME280;30146;52.268;20.944;2022-07-11T08:16:35;100252.55;;;18.36;63.27
44441;BME280;30146;52.268;20.944;2022-07-11T08:19:09;100258.02;;;18.45;62.89
44441;BME280;30146;52.268;20.944;2022-07-11T08:21:41;100261.10;;;18.50;62.23
44441;BME280;30146;52.268;20.944;2022-07-11T08:24:12;100262.64;;;18.66;62.31
44441;BME280;30146;52.268;20.944;2022-07-11T08:26:45;100261.05;;;18.90;62.41
44441;BME280;30146;52.268;20.944;2022-07-11T08:29:17;100258.55;;;19.22;62.53
44441;BME280;30146;52.268;20.944;2022-07-11T08:31:53;100261.96;;;19.57;62.38
44441;BME280;30146;52.268;20.944;2022-07-11T08:34:24;100264.04;;;19.78;61.67
44441;BME280;30146;52.268;20.944;2022-07-11T08:36:55;100268.17;;;19.87;60.75
44441;BME280;30146;52.268;20.944;2022-07-11T08:39:27;100267.91;;;19.85;60.04
44441;BME280;30146;52.268;20.944;2022-07-11T08:41:59;100271.77;;;19.76;59.49
44441;BME280;30146;52.268;20.944;2022-07-11T08:44:35;100267.84;;;19.68;59.18
44441;BME280;30146;52.268;20.944;2022-07-11T08:47:08;100262.44;;;19.76;59.57
44441;BME280;30146;52.268;20.944;2022-07-11T08:49:40;100262.36;;;19.88;59.65
44441;BME280;30146;52.268;20.944;2022-07-11T08:52:12;100260.34;;;19.97;59.28
44441;BME280;30146;52.268;20.944;2022-07-11T08:54:50;100262.38;;;20.02;58.81
44441;BME280;30146;52.268;20.944;2022-07-11T08:57:21;100263.15;;;20.04;58.50
44441;BME280;30146;52.268;20.944;2022-07-11T08:59:55;100264.73;;;20.07;58.30
44441;BME280;30146;52.268;20.944;2022-07-11T09:02:28;100266.06;;;20.11;57.74
44441;BME280;30146;52.268;20.944;2022-07-11T09:05:01;100262.41;;;20.19;57.75
44441;BME280;30146;52.268;20.944;2022-07-11T09:07:34;100262.14;;;20.31;57.67
44441;BME280;30146;52.268;20.944;2022-07-11T09:10:13;100257.62;;;20.44;57.26
44441;BME280;30146;52.268;20.944;2022-07-11T09:13:04;100263.09;;;20.56;56.90
44441;BME280;30146;52.268;20.944;2022-07-11T09:15:38;100258.09;;;20.63;56.49
44441;BME280;30146;52.268;20.944;2022-07-11T09:18:30;100257.08;;;20.66;56.10
44441;BME280;30146;52.268;20.944;2022-07-11T09:21:05;100263.89;;;20.74;55.99
44441;BME280;30146;52.268;20.944;2022-07-11T09:23:56;100260.48;;;20.89;55.76
44441;BME280;30146;52.268;20.944;2022-07-11T09:26:46;100259.96;;;21.06;55.68
44441;BME280;30146;52.268;20.944;2022-07-11T09:29:20;100263.23;;;21.32;55.61
44441;BME280;30146;52.268;20.944;2022-07-11T09:31:53;100261.23;;;21.65;55.60
44441;BME280;30146;52.268;20.944;2022-07-11T09:34:24;100259.35;;;22.01;55.69
44441;BME280;30146;52.268;20.944;2022-07-11T09:37:00;100261.05;;;22.28;54.62
44441;BME280;30146;52.268;20.944;2022-07-11T09:39:32;100257.59;;;22.48;54.28
44441;BME280;30146;52.268;20.944;2022-07-11T09:42:06;100256.71;;;22.71;53.91
44441;BME280;30146;52.268;20.944;2022-07-11T09:44:37;100250.56;;;22.95;53.03
44441;BME280;30146;52.268;20.944;2022-07-11T09:47:10;100244.94;;;23.10;52.12
44441;BME280;30146;52.268;20.944;2022-07-11T09:49:44;100247.16;;;23.19;51.29
44441;BME280;30146;52.268;20.944;2022-07-11T09:52:18;100245.38;;;23.28;51.01
44441;BME280;30146;52.268;20.944;2022-07-11T09:55:00;100247.64;;;23.41;50.45
44441;BME280;30146;52.268;20.944;2022-07-11T09:57:33;100244.02;;;23.52;49.60
44441;BME280;30146;52.268;20.944;2022-07-11T10:00:12;100241.05;;;23.57;49.36
44441;BME280;30146;52.268;20.944;2022-07-11T10:02:45;100243.30;;;23.66;49.09
44441;BME280;30146;52.268;20.944;2022-07-11T10:05:16;100243.77;;;23.74;49.00
44441;BME280;30146;52.268;20.944;2022-07-11T10:07:48;100245.64;;;23.70;47.98
44441;BME280;30146;52.268;20.944;2022-07-11T10:10:20;100240.90;;;23.73;47.63
44441;BME280;30146;52.268;20.944;2022-07-11T10:12:52;100242.16;;;23.75;47.85
44441;BME280;30146;52.268;20.944;2022-07-11T10:15:27;100242.59;;;23.79;47.96
44441;BME280;30146;52.268;20.944;2022-07-11T10:18:07;100241.21;;;23.92;47.86
44441;BME280;30146;52.268;20.944;2022-07-11T10:20:45;100232.46;;;24.00;47.80
44441;BME280;30146;52.268;20.944;2022-07-11T10:23:25;100234.44;;;24.10;47.08
44441;BME280;30146;52.268;20.944;2022-07-11T10:26:06;100238.57;;;24.00;46.55
44441;BME280;30146;52.268;20.944;2022-07-11T10:28:43;100237.70;;;23.95;46.34
44441;BME280;30146;52.268;20.944;2022-07-11T10:31:22;100240.44;;;23.88;46.12
44441;BME280;30146;52.268;20.944;2022-07-11T10:34:11;100246.02;;;23.75;46.31
44441;BME280;30146;52.268;20.944;2022-07-11T10:36:47;100245.63;;;23.64;46.48
44441;BME280;30146;52.268;20.944;2022-07-11T10:39:20;100247.70;;;23.54;46.45
44441;BME280;30146;52.268;20.944;2022-07-11T10:41:55;100250.56;;;23.37;46.26
44441;BME280;30146;52.268;20.944;2022-07-11T10:44:51;100254.07;;;23.17;46.30
44441;BME280;30146;52.268;20.944;2022-07-11T10:47:38;100255.48;;;23.00;46.60
44441;BME280;30146;52.268;20.944;2022-07-11T10:50:33;100262.34;;;22.79;46.65
44441;BME280;30146;52.268;20.944;2022-07-11T10:53:09;100260.95;;;22.57;46.61
44441;BME280;30146;52.268;20.944;2022-07-11T10:56:05;100264.96;;;22.33;46.84
44441;BME280;30146;52.268;20.944;2022-07-11T10:59:11;100256.80;;;22.08;46.95
44441;BME280;30146;52.268;20.944;2022-07-11T11:02:10;100263.72;;;21.95;47.58
44441;BME280;30146;52.268;20.944;2022-07-11T11:04:51;100260.89;;;21.89;47.86
44441;BME280;30146;52.268;20.944;2022-07-11T11:07:36;100259.51;;;21.89;48.00
44441;BME280;30146;52.268;20.944;2022-07-11T11:13:23;100260.38;;;21.95;48.37
44441;BME280;30146;52.268;20.944;2022-07-11T11:15:56;100261.10;;;21.98;48.76
44441;BME280;30146;52.268;20.944;2022-07-11T11:18:40;100259.90;;;22.00;48.58
44441;BME280;30146;52.268;20.944;2022-07-11T11:21:23;100258.08;;;22.02;48.68
44441;BME280;30146;52.268;20.944;2022-07-11T11:24:19;100257.91;;;22.01;48.18
44441;BME280;30146;52.268;20.944;2022-07-11T11:26:52;100256.44;;;22.03;48.41
44441;BME280;30146;52.268;20.944;2022-07-11T11:29:27;100258.77;;;22.10;48.85
44441;BME280;30146;52.268;20.944;2022-07-11T11:32:01;100256.83;;;22.20;48.59
44441;BME280;30146;52.268;20.944;2022-07-11T11:34:34;100254.66;;;22.27;48.07
44441;BME280;30146;52.268;20.944;2022-07-11T11:37:09;100252.11;;;22.33;47.89
44441;BME280;30146;52.268;20.944;2022-07-11T11:39:40;100247.52;;;22.37;48.00
44441;BME280;30146;52.268;20.944;2022-07-11T11:42:16;100248.30;;;22.41;48.06
44441;BME280;30146;52.268;20.944;2022-07-11T11:44:56;100246.45;;;22.42;47.99
44441;BME280;30146;52.268;20.944;2022-07-11T11:47:31;100241.73;;;22.46;48.25
44441;BME280;30146;52.268;20.944;2022-07-11T11:50:03;100239.81;;;22.49;47.81
44441;BME280;30146;52.268;20.944;2022-07-11T11:52:44;100234.91;;;22.52;47.59
44441;BME280;30146;52.268;20.944;2022-07-11T11:55:15;100226.55;;;22.55;47.25
44441;BME280;30146;52.268;20.944;2022-07-11T11:57:48;100227.77;;;22.61;47.40
44441;BME280;30146;52.268;20.944;2022-07-11T12:00:25;100231.30;;;22.65;47.24
44441;BME280;30146;52.268;20.944;2022-07-11T12:03:19;100236.10;;;22.69;46.86
44441;BME280;30146;52.268;20.944;2022-07-11T12:05:58;100232.56;;;22.74;46.70
44441;BME280;30146;52.268;20.944;2022-07-11T12:08:40;100235.23;;;22.80;46.89
44441;BME280;30146;52.268;20.944;2022-07-11T12:11:14;100232.84;;;22.88;46.58
44441;BME280;30146;52.268;20.944;2022-07-11T12:13:47;100235.13;;;22.94;46.21
44441;BME280;30146;52.268;20.944;2022-07-11T12:16:19;100239.46;;;22.94;46.34
44441;BME280;30146;52.268;20.944;2022-07-11T12:19:09;100248.48;;;22.86;45.58
44441;BME280;30146;52.268;20.944;2022-07-11T12:21:43;100257.57;;;22.69;45.32
44441;BME280;30146;52.268;20.944;2022-07-11T12:24:18;100266.73;;;22.44;45.20
44441;BME280;30146;52.268;20.944;2022-07-11T12:26:59;100279.69;;;22.10;45.36
44441;BME280;30146;52.268;20.944;2022-07-11T12:29:41;100287.27;;;21.75;45.88
44441;BME280;30146;52.268;20.944;2022-07-11T12:32:14;100293.83;;;21.38;46.69
44441;BME280;30146;52.268;20.944;2022-07-11T12:34:47;100298.79;;;21.04;47.44
44441;BME280;30146;52.268;20.944;2022-07-11T12:37:35;100305.35;;;20.69;48.17
44441;BME280;30146;52.268;20.944;2022-07-11T12:40:12;100310.52;;;20.35;49.00
44441;BME280;30146;52.268;20.944;2022-07-11T12:42:45;100312.09;;;20.07;49.54
44441;BME280;30146;52.268;20.944;2022-07-11T12:45:18;100316.40;;;19.83;50.12
44441;BME280;30146;52.268;20.944;2022-07-11T12:47:50;100324.48;;;19.62;50.67
44441;BME280;30146;52.268;20.944;2022-07-11T12:50:25;100318.91;;;19.40;50.98
44441;BME280;30146;52.268;20.944;2022-07-11T12:52:58;100324.34;;;19.20;51.41
44441;BME280;30146;52.268;20.944;2022-07-11T12:55:31;100326.27;;;19.00;51.68
44441;BME280;30146;52.268;20.944;2022-07-11T12:58:07;100329.45;;;18.83;51.99
44441;BME280;30146;52.268;20.944;2022-07-11T13:00:42;100330.84;;;18.66;52.39
44441;BME280;30146;52.268;20.944;2022-07-11T13:03:16;100328.60;;;18.50;52.78
44441;BME280;30146;52.268;20.944;2022-07-11T13:06:04;100323.19;;;18.30;53.06
44441;BME280;30146;52.268;20.944;2022-07-11T13:08:38;100320.20;;;18.14;53.53
44441;BME280;30146;52.268;20.944;2022-07-11T13:11:30;100319.52;;;17.98;53.87
44441;BME280;30146;52.268;20.944;2022-07-11T13:14:02;100319.61;;;17.86;54.37
44441;BME280;30146;52.268;20.944;2022-07-11T13:16:53;100312.95;;;17.75;54.64
44441;BME280;30146;52.268;20.944;2022-07-11T13:19:47;100314.34;;;17.66;55.08
44441;BME280;30146;52.268;20.944;2022-07-11T13:22:19;100318.77;;;17.59;55.53